sensor_id;sensor_type;location;lat;lon;timestamp;temperature;humidity
35682;DHT22;21805;51.022;4.782;2023-06-24T00:00:10;21.10;99.90
35682;DHT22;21805;51.022;4.782;2023-06-24T00:02:37;21.10;99.90
35682;DHT22;21805;51.022;4.782;2023-06-24T00:05:03;21.00;99.90
35682;DHT22;21805;51.022;4.782;2023-06-24T00:07:30;21.00;99.90
35682;DHT22;21805;51.022;4.782;2023-06-24T00:09:55;20.90;99.90
35682;DHT22;21805;51.022;4.782;2023-06-24T00:12:22;20.80;99.90
35682;DHT22;21805;51.022;4.782;2023-06-24T00:14:49;20.80;99.90
35682;DHT22;21805;51.022;4.782;2023-06-24T00:17:16;20.70;99.90
35682;DHT22;21805;51.022;4.782;2023-06-24T00:19:45;20.70;99.90
35682;DHT22;21805;51.022;4.782;2023-06-24T00:22:12;20.70;99.90
35682;DHT22;21805;51.022;4.782;2023-06-24T00:24:38;20.70;99.90
35682;DHT22;21805;51.022;4.782;2023-06-24T00:27:07;20.60;99.90
35682;DHT22;21805;51.022;4.782;2023-06-24T00:29:35;20.60;99.90
35682;DHT22;21805;51.022;4.782;2023-06-24T00:32:04;20.50;99.90
35682;DHT22;21805;51.022;4.782;2023-06-24T00:36:59;20.50;99.90
35682;DHT22;21805;51.022;4.782;2023-06-24T00:41:54;20.40;99.90
35682;DHT22;21805;51.022;4.782;2023-06-24T00:46:53;20.30;99.90
35682;DHT22;21805;51.022;4.782;2023-06-24T00:51:50;20.30;99.90
35682;DHT22;21805;51.022;4.782;2023-06-24T00:56:46;20.20;99.90
35682;DHT22;21805;51.022;4.782;2023-06-24T01:01:41;20.10;99.90
35682;DHT22;21805;51.022;4.782;2023-06-24T01:04:07;20.10;99.90
35682;DHT22;21805;51.022;4.782;2023-06-24T01:06:34;20.00;99.90
35682;DHT22;21805;51.022;4.782;2023-06-24T01:09:02;20.00;99.90
35682;DHT22;21805;51.022;4.782;2023-06-24T01:11:34;19.90;99.90
35682;DHT22;21805;51.022;4.782;2023-06-24T01:21:42;19.80;99.90
35682;DHT22;21805;51.022;4.782;2023-06-24T01:27:07;19.80;99.90
35682;DHT22;21805;51.022;4.782;2023-06-24T01:29:42;19.70;99.90
35682;DHT22;21805;51.022;4.782;2023-06-24T01:32:29;19.70;99.90
35682;DHT22;21805;51.022;4.782;2023-06-24T01:35:07;19.60;99.90
35682;DHT22;21805;51.022;4.782;2023-06-24T01:37:38;19.60;99.90
35682;DHT22;21805;51.022;4.782;2023-06-24T01:40:18;19.50;99.90
35682;DHT22;21805;51.022;4.782;2023-06-24T01:42:46;19.50;99.90
35682;DHT22;21805;51.022;4.782;2023-06-24T01:45:14;19.50;99.90
35682;DHT22;21805;51.022;4.782;2023-06-24T01:47:43;19.50;99.90
35682;DHT22;21805;51.022;4.782;2023-06-24T01:50:16;19.50;99.90
35682;DHT22;21805;51.022;4.782;2023-06-24T01:52:47;19.50;99.90
35682;DHT22;21805;51.022;4.782;2023-06-24T01:55:18;19.40;99.90
35682;DHT22;21805;51.022;4.782;2023-06-24T01:57:48;19.40;99.90
35682;DHT22;21805;51.022;4.782;2023-06-24T02:00:15;19.40;99.90
35682;DHT22;21805;51.022;4.782;2023-06-24T02:02:48;19.30;99.90
35682;DHT22;21805;51.022;4.782;2023-06-24T02:05:15;19.30;99.90
35682;DHT22;21805;51.022;4.782;2023-06-24T02:07:42;19.30;99.90
35682;DHT22;21805;51.022;4.782;2023-06-24T02:10:09;19.30;99.90
35682;DHT22;21805;51.022;4.782;2023-06-24T02:12:37;19.20;99.90
35682;DHT22;21805;51.022;4.782;2023-06-24T02:17:32;19.30;99.90
35682;DHT22;21805;51.022;4.782;2023-06-24T02:19:59;19.30;99.90
35682;DHT22;21805;51.022;4.782;2023-06-24T02:22:29;19.30;99.90
35682;DHT22;21805;51.022;4.782;2023-06-24T02:24:55;19.30;99.90
35682;DHT22;21805;51.022;4.782;2023-06-24T02:27:21;19.30;99.90
35682;DHT22;21805;51.022;4.782;2023-06-24T02:29:48;19.20;99.90
35682;DHT22;21805;51.022;4.782;2023-06-24T02:32:16;19.20;99.90
35682;DHT22;21805;51.022;4.782;2023-06-24T02:34:45;19.10;99.90
35682;DHT22;21805;51.022;4.782;2023-06-24T02:37:11;19.10;99.90
35682;DHT22;21805;51.022;4.782;2023-06-24T02:39:40;19.00;99.90
35682;DHT22;21805;51.022;4.782;2023-06-24T02:42:11;19.00;99.90
35682;DHT22;21805;51.022;4.782;2023-06-24T02:47:09;19.00;99.90
35682;DHT22;21805;51.022;4.782;2023-06-24T02:52:03;18.90;99.90
35682;DHT22;21805;51.022;4.782;2023-06-24T02:54:29;18.90;99.90
35682;DHT22;21805;51.022;4.782;2023-06-24T02:56:55;18.90;99.90
35682;DHT22;21805;51.022;4.782;2023-06-24T02:59:26;18.80;99.90
35682;DHT22;21805;51.022;4.782;2023-06-24T03:06:49;18.80;99.90
35682;DHT22;21805;51.022;4.782;2023-06-24T03:09:16;18.70;99.90
35682;DHT22;21805;51.022;4.782;2023-06-24T03:11:44;18.70;99.90
35682;DHT22;21805;51.022;4.782;2023-06-24T03:14:12;18.70;99.90
35682;DHT22;21805;51.022;4.782;2023-06-24T03:16:40;18.70;99.90
35682;DHT22;21805;51.022;4.782;2023-06-24T03:19:08;18.60;99.90
35682;DHT22;21805;51.022;4.782;2023-06-24T03:21:37;18.60;99.90
35682;DHT22;21805;51.022;4.782;2023-06-24T03:24:04;18.50;99.90
35682;DHT22;21805;51.022;4.782;2023-06-24T03:26:42;18.50;99.90
35682;DHT22;21805;51.022;4.782;2023-06-24T03:29:10;18.40;99.90
35682;DHT22;21805;51.022;4.782;2023-06-24T03:31:39;18.40;99.90
35682;DHT22;21805;51.022;4.782;2023-06-24T03:34:11;18.40;99.90
35682;DHT22;21805;51.022;4.782;2023-06-24T03:36:39;18.40;99.90
35682;DHT22;21805;51.022;4.782;2023-06-24T03:39:05;18.40;99.90
35682;DHT22;21805;51.022;4.782;2023-06-24T03:41:32;18.40;99.90
35682;DHT22;21805;51.022;4.782;2023-06-24T03:46:29;18.40;99.90
35682;DHT22;21805;51.022;4.782;2023-06-24T03:49:00;18.30;99.90
35682;DHT22;21805;51.022;4.782;2023-06-24T03:51:26;18.40;99.90
35682;DHT22;21805;51.022;4.782;2023-06-24T03:53:53;18.40;99.90
35682;DHT22;21805;51.022;4.782;2023-06-24T03:56:20;18.40;99.90
35682;DHT22;21805;51.022;4.782;2023-06-24T03:58:48;18.40;99.90
35682;DHT22;21805;51.022;4.782;2023-06-24T04:01:16;18.30;99.90
35682;DHT22;21805;51.022;4.782;2023-06-24T04:03:45;18.30;99.90
35682;DHT22;21805;51.022;4.782;2023-06-24T04:06:19;18.40;99.90
35682;DHT22;21805;51.022;4.782;2023-06-24T04:11:14;18.40;99.90
35682;DHT22;21805;51.022;4.782;2023-06-24T04:13:41;18.50;99.90
35682;DHT22;21805;51.022;4.782;2023-06-24T04:16:09;18.50;99.90
35682;DHT22;21805;51.022;4.782;2023-06-24T04:21:06;18.50;99.90
35682;DHT22;21805;51.022;4.782;2023-06-24T04:23:33;18.50;99.90
35682;DHT22;21805;51.022;4.782;2023-06-24T04:28:27;18.50;99.90
35682;DHT22;21805;51.022;4.782;2023-06-24T04:33:22;18.70;99.90
35682;DHT22;21805;51.022;4.782;2023-06-24T04:38:21;18.80;99.90
35682;DHT22;21805;51.022;4.782;2023-06-24T04:43:15;18.90;99.90
35682;DHT22;21805;51.022;4.782;2023-06-24T04:45:43;19.00;99.90
35682;DHT22;21805;51.022;4.782;2023-06-24T04:48:12;19.10;99.90
35682;DHT22;21805;51.022;4.782;2023-06-24T04:50:38;19.10;99.90
35682;DHT22;21805;51.022;4.782;2023-06-24T04:53:09;19.20;99.90
35682;DHT22;21805;51.022;4.782;2023-06-24T04:55:37;19.40;99.90
35682;DHT22;21805;51.022;4.782;2023-06-24T04:58:04;19.50;99.90
35682;DHT22;21805;51.022;4.782;2023-06-24T05:00:31;19.50;99.90
35682;DHT22;21805;51.022;4.782;2023-06-24T05:05:25;19.70;99.90
35682;DHT22;21805;51.022;4.782;2023-06-24T05:07:57;19.80;99.90
35682;DHT22;21805;51.022;4.782;2023-06-24T05:12:51;19.90;99.90
35682;DHT22;21805;51.022;4.782;2023-06-24T05:15:17;20.10;99.90
35682;DHT22;21805;51.022;4.782;2023-06-24T05:17:43;20.10;99.90
35682;DHT22;21805;51.022;4.782;2023-06-24T05:20:15;20.20;99.90
35682;DHT22;21805;51.022;4.782;2023-06-24T05:22:43;20.30;99.90
35682;DHT22;21805;51.022;4.782;2023-06-24T05:25:12;20.40;99.90
35682;DHT22;21805;51.022;4.782;2023-06-24T05:27:38;20.50;99.90
35682;DHT22;21805;51.022;4.782;2023-06-24T05:32:33;20.70;99.90
35682;DHT22;21805;51.022;4.782;2023-06-24T05:37:30;20.80;99.90
35682;DHT22;21805;51.022;4.782;2023-06-24T05:40:04;20.90;99.90
35682;DHT22;21805;51.022;4.782;2023-06-24T05:42:30;20.90;99.90
35682;DHT22;21805;51.022;4.782;2023-06-24T05:44:59;21.10;99.90
35682;DHT22;21805;51.022;4.782;2023-06-24T05:47:24;21.20;99.90
35682;DHT22;21805;51.022;4.782;2023-06-24T05:52:20;21.40;99.90
35682;DHT22;21805;51.022;4.782;2023-06-24T05:54:51;21.50;99.90
35682;DHT22;21805;51.022;4.782;2023-06-24T05:57:17;21.50;99.90
35682;DHT22;21805;51.022;4.782;2023-06-24T05:59:43;21.50;99.90
35682;DHT22;21805;51.022;4.782;2023-06-24T06:02:11;21.60;99.90
35682;DHT22;21805;51.022;4.782;2023-06-24T06:04:38;21.70;99.90
35682;DHT22;21805;51.022;4.782;2023-06-24T06:07:05;21.80;99.90
35682;DHT22;21805;51.022;4.782;2023-06-24T06:09:33;21.90;99.90
35682;DHT22;21805;51.022;4.782;2023-06-24T06:11:59;21.90;99.90
35682;DHT22;21805;51.022;4.782;2023-06-24T06:14:24;21.90;99.90
35682;DHT22;21805;51.022;4.782;2023-06-24T06:16:53;22.00;99.90
35682;DHT22;21805;51.022;4.782;2023-06-24T06:19:19;22.10;99.90
35682;DHT22;21805;51.022;4.782;2023-06-24T06:21:46;22.30;99.90
35682;DHT22;21805;51.022;4.782;2023-06-24T06:26:47;22.60;99.90
35682;DHT22;21805;51.022;4.782;2023-06-24T06:29:15;22.70;99.90
35682;DHT22;21805;51.022;4.782;2023-06-24T06:34:11;22.80;99.90
35682;DHT22;21805;51.022;4.782;2023-06-24T06:36:39;22.90;99.90
35682;DHT22;21805;51.022;4.782;2023-06-24T06:39:08;22.90;99.90
35682;DHT22;21805;51.022;4.782;2023-06-24T06:41:37;23.00;99.90
35682;DHT22;21805;51.022;4.782;2023-06-24T06:44:15;23.00;99.90
35682;DHT22;21805;51.022;4.782;2023-06-24T06:46:43;23.00;99.90
35682;DHT22;21805;51.022;4.782;2023-06-24T07:59:37;25.60;99.90
35682;DHT22;21805;51.022;4.782;2023-06-24T08:02:03;25.60;99.90
35682;DHT22;21805;51.022;4.782;2023-06-24T08:04:30;25.60;99.90
35682;DHT22;21805;51.022;4.782;2023-06-24T08:06:59;25.70;99.90
35682;DHT22;21805;51.022;4.782;2023-06-24T08:14:25;25.80;99.90
35682;DHT22;21805;51.022;4.782;2023-06-24T08:16:54;25.90;99.90
35682;DHT22;21805;51.022;4.782;2023-06-24T08:19:23;26.00;99.90
35682;DHT22;21805;51.022;4.782;2023-06-24T08:21:49;26.20;99.90
35682;DHT22;21805;51.022;4.782;2023-06-24T08:24:20;26.30;99.90
35682;DHT22;21805;51.022;4.782;2023-06-24T08:29:18;26.20;99.90
35682;DHT22;21805;51.022;4.782;2023-06-24T08:31:46;26.40;99.90
35682;DHT22;21805;51.022;4.782;2023-06-24T08:34:17;26.50;99.90
35682;DHT22;21805;51.022;4.782;2023-06-24T08:36:43;26.50;99.90
35682;DHT22;21805;51.022;4.782;2023-06-24T08:39:16;26.70;99.90
35682;DHT22;21805;51.022;4.782;2023-06-24T08:46:58;26.90;99.90
35682;DHT22;21805;51.022;4.782;2023-06-24T08:52:08;27.10;99.90
35682;DHT22;21805;51.022;4.782;2023-06-24T08:54:38;27.20;99.90
35682;DHT22;21805;51.022;4.782;2023-06-24T08:57:12;27.40;99.90
35682;DHT22;21805;51.022;4.782;2023-06-24T08:59:41;27.70;99.90
35682;DHT22;21805;51.022;4.782;2023-06-24T09:02:10;27.90;99.90
35682;DHT22;21805;51.022;4.782;2023-06-24T09:04:38;27.90;99.90
35682;DHT22;21805;51.022;4.782;2023-06-24T09:07:05;27.90;99.90
35682;DHT22;21805;51.022;4.782;2023-06-24T09:09:32;27.90;99.90
35682;DHT22;21805;51.022;4.782;2023-06-24T09:12:00;28.00;99.90
35682;DHT22;21805;51.022;4.782;2023-06-24T09:14:30;28.00;99.90
35682;DHT22;21805;51.022;4.782;2023-06-24T09:16:59;28.00;99.90
35682;DHT22;21805;51.022;4.782;2023-06-24T09:19:38;28.00;99.90
35682;DHT22;21805;51.022;4.782;2023-06-24T09:22:07;28.00;99.90
35682;DHT22;21805;51.022;4.782;2023-06-24T09:24:35;28.30;99.90
35682;DHT22;21805;51.022;4.782;2023-06-24T09:27:02;28.40;99.90
35682;DHT22;21805;51.022;4.782;2023-06-24T09:29:32;28.40;99.90
35682;DHT22;21805;51.022;4.782;2023-06-24T09:32:04;28.50;99.90
35682;DHT22;21805;51.022;4.782;2023-06-24T09:37:00;28.50;99.90
35682;DHT22;21805;51.022;4.782;2023-06-24T09:39:28;28.50;99.90
35682;DHT22;21805;51.022;4.782;2023-06-24T09:42:00;28.70;99.90
35682;DHT22;21805;51.022;4.782;2023-06-24T09:44:26;29.00;99.90
35682;DHT22;21805;51.022;4.782;2023-06-24T09:46:55;29.00;99.90
35682;DHT22;21805;51.022;4.782;2023-06-24T09:51:57;29.00;98.40
35682;DHT22;21805;51.022;4.782;2023-06-24T09:54:27;28.80;97.70
35682;DHT22;21805;51.022;4.782;2023-06-24T09:59:22;28.80;99.20
35682;DHT22;21805;51.022;4.782;2023-06-24T10:04:19;28.90;99.90
35682;DHT22;21805;51.022;4.782;2023-06-24T10:06:45;29.10;98.10
35682;DHT22;21805;51.022;4.782;2023-06-24T10:09:12;29.00;97.00
35682;DHT22;21805;51.022;4.782;2023-06-24T10:11:42;29.10;99.90
35682;DHT22;21805;51.022;4.782;2023-06-24T10:14:09;29.30;98.90
35682;DHT22;21805;51.022;4.782;2023-06-24T10:19:04;29.80;99.90
35682;DHT22;21805;51.022;4.782;2023-06-24T10:24:31;30.00;97.60
35682;DHT22;21805;51.022;4.782;2023-06-24T10:27:03;30.00;96.30
35682;DHT22;21805;51.022;4.782;2023-06-24T10:29:32;30.10;95.70
35682;DHT22;21805;51.022;4.782;2023-06-24T10:32:02;30.30;98.60
35682;DHT22;21805;51.022;4.782;2023-06-24T10:36:58;30.60;94.10
35682;DHT22;21805;51.022;4.782;2023-06-24T10:39:37;30.40;94.10
35682;DHT22;21805;51.022;4.782;2023-06-24T10:44:47;30.40;93.10
35682;DHT22;21805;51.022;4.782;2023-06-24T10:47:12;30.40;93.70
35682;DHT22;21805;51.022;4.782;2023-06-24T10:49:38;30.20;93.80
35682;DHT22;21805;51.022;4.782;2023-06-24T10:52:04;30.30;94.20
35682;DHT22;21805;51.022;4.782;2023-06-24T10:54:29;30.50;93.50
35682;DHT22;21805;51.022;4.782;2023-06-24T10:56:55;30.60;94.40
35682;DHT22;21805;51.022;4.782;2023-06-24T10:59:21;30.50;93.40
35682;DHT22;21805;51.022;4.782;2023-06-24T11:01:54;30.60;95.10
35682;DHT22;21805;51.022;4.782;2023-06-24T11:04:19;30.70;92.70
35682;DHT22;21805;51.022;4.782;2023-06-24T11:07:00;31.00;94.90
35682;DHT22;21805;51.022;4.782;2023-06-24T11:09:29;31.00;93.30
35682;DHT22;21805;51.022;4.782;2023-06-24T11:11:54;31.10;96.10
35682;DHT22;21805;51.022;4.782;2023-06-24T11:14:21;31.20;95.80
35682;DHT22;21805;51.022;4.782;2023-06-24T11:16:47;31.30;92.30
35682;DHT22;21805;51.022;4.782;2023-06-24T11:19:12;31.30;93.20
35682;DHT22;21805;51.022;4.782;2023-06-24T11:21:38;31.30;91.00
35682;DHT22;21805;51.022;4.782;2023-06-24T11:24:04;31.40;90.60
35682;DHT22;21805;51.022;4.782;2023-06-24T11:26:29;31.20;91.50
35682;DHT22;21805;51.022;4.782;2023-06-24T11:28:58;31.00;91.30
35682;DHT22;21805;51.022;4.782;2023-06-24T11:31:25;31.00;91.80
35682;DHT22;21805;51.022;4.782;2023-06-24T11:33:51;31.30;94.70
35682;DHT22;21805;51.022;4.782;2023-06-24T11:36:20;31.50;90.90
35682;DHT22;21805;51.022;4.782;2023-06-24T11:38:48;31.70;93.80
35682;DHT22;21805;51.022;4.782;2023-06-24T11:41:14;31.50;92.90
35682;DHT22;21805;51.022;4.782;2023-06-24T11:43:45;31.60;95.00
35682;DHT22;21805;51.022;4.782;2023-06-24T11:46:23;31.90;91.80
35682;DHT22;21805;51.022;4.782;2023-06-24T11:48:51;32.10;89.80
35682;DHT22;21805;51.022;4.782;2023-06-24T11:51:17;31.90;92.60
35682;DHT22;21805;51.022;4.782;2023-06-24T11:53:43;32.00;90.80
35682;DHT22;21805;51.022;4.782;2023-06-24T11:56:09;32.10;93.70
35682;DHT22;21805;51.022;4.782;2023-06-24T11:58:34;32.20;91.70
35682;DHT22;21805;51.022;4.782;2023-06-24T12:01:01;32.20;92.50
35682;DHT22;21805;51.022;4.782;2023-06-24T12:03:30;32.20;90.20
35682;DHT22;21805;51.022;4.782;2023-06-24T12:05:57;32.20;92.00
35682;DHT22;21805;51.022;4.782;2023-06-24T12:08:23;32.30;91.20
35682;DHT22;21805;51.022;4.782;2023-06-24T12:10:48;32.60;89.00
35682;DHT22;21805;51.022;4.782;2023-06-24T12:13:14;32.60;93.00
35682;DHT22;21805;51.022;4.782;2023-06-24T12:15:40;32.80;90.70
35682;DHT22;21805;51.022;4.782;2023-06-24T12:18:06;32.80;90.70
35682;DHT22;21805;51.022;4.782;2023-06-24T12:20:32;33.10;88.80
35682;DHT22;21805;51.022;4.782;2023-06-24T12:22:58;33.20;84.00
35682;DHT22;21805;51.022;4.782;2023-06-24T12:25:23;32.80;83.00
35682;DHT22;21805;51.022;4.782;2023-06-24T12:27:51;32.80;86.10
35682;DHT22;21805;51.022;4.782;2023-06-24T12:30:17;33.00;84.40
35682;DHT22;21805;51.022;4.782;2023-06-24T12:32:43;33.10;86.00
35682;DHT22;21805;51.022;4.782;2023-06-24T12:35:10;33.20;88.90
35682;DHT22;21805;51.022;4.782;2023-06-24T12:37:36;33.40;89.70
35682;DHT22;21805;51.022;4.782;2023-06-24T12:40:05;33.50;91.20
35682;DHT22;21805;51.022;4.782;2023-06-24T12:42:31;33.60;85.30
35682;DHT22;21805;51.022;4.782;2023-06-24T12:44:57;33.70;89.20
35682;DHT22;21805;51.022;4.782;2023-06-24T12:47:22;33.80;90.30
35682;DHT22;21805;51.022;4.782;2023-06-24T12:49:48;33.70;88.60
35682;DHT22;21805;51.022;4.782;2023-06-24T12:52:14;33.90;87.10
35682;DHT22;21805;51.022;4.782;2023-06-24T12:54:40;33.80;83.60
35682;DHT22;21805;51.022;4.782;2023-06-24T12:57:06;33.90;79.50
35682;DHT22;21805;51.022;4.782;2023-06-24T13:02:04;34.00;88.80
35682;DHT22;21805;51.022;4.782;2023-06-24T13:04:33;34.10;83.30
35682;DHT22;21805;51.022;4.782;2023-06-24T13:06:59;34.20;88.70
35682;DHT22;21805;51.022;4.782;2023-06-24T13:09:27;34.10;81.00
35682;DHT22;21805;51.022;4.782;2023-06-24T13:11:52;34.20;79.30
35682;DHT22;21805;51.022;4.782;2023-06-24T13:14:18;33.70;79.90
35682;DHT22;21805;51.022;4.782;2023-06-24T13:16:44;33.90;77.10
35682;DHT22;21805;51.022;4.782;2023-06-24T13:19:10;34.00;87.10
35682;DHT22;21805;51.022;4.782;2023-06-24T13:21:35;34.00;91.20
35682;DHT22;21805;51.022;4.782;2023-06-24T13:24:01;34.10;83.70
35682;DHT22;21805;51.022;4.782;2023-06-24T13:26:26;34.10;86.60
35682;DHT22;21805;51.022;4.782;2023-06-24T13:28:52;34.30;90.00
35682;DHT22;21805;51.022;4.782;2023-06-24T13:31:19;34.20;89.10
35682;DHT22;21805;51.022;4.782;2023-06-24T13:33:45;34.30;83.10
35682;DHT22;21805;51.022;4.782;2023-06-24T13:36:12;34.20;78.30
35682;DHT22;21805;51.022;4.782;2023-06-24T13:38:50;34.20;79.20
35682;DHT22;21805;51.022;4.782;2023-06-24T13:41:16;34.20;78.00
35682;DHT22;21805;51.022;4.782;2023-06-24T13:43:42;34.10;90.40
35682;DHT22;21805;51.022;4.782;2023-06-24T13:46:07;34.20;86.90
35682;DHT22;21805;51.022;4.782;2023-06-24T13:48:34;34.40;85.40
35682;DHT22;21805;51.022;4.782;2023-06-24T13:50:59;34.40;90.50
35682;DHT22;21805;51.022;4.782;2023-06-24T13:53:25;34.60;80.70
35682;DHT22;21805;51.022;4.782;2023-06-24T13:55:51;34.50;86.90
35682;DHT22;21805;51.022;4.782;2023-06-24T13:58:16;34.60;76.50
35682;DHT22;21805;51.022;4.782;2023-06-24T14:00:42;34.60;82.40
35682;DHT22;21805;51.022;4.782;2023-06-24T14:03:07;34.70;84.40
35682;DHT22;21805;51.022;4.782;2023-06-24T14:05:33;34.80;82.90
35682;DHT22;21805;51.022;4.782;2023-06-24T14:07:58;34.60;74.00
35682;DHT22;21805;51.022;4.782;2023-06-24T14:10:24;34.60;87.10
35682;DHT22;21805;51.022;4.782;2023-06-24T14:12:50;34.50;77.30
35682;DHT22;21805;51.022;4.782;2023-06-24T14:15:16;34.60;81.30
35682;DHT22;21805;51.022;4.782;2023-06-24T14:17:42;34.60;85.20
35682;DHT22;21805;51.022;4.782;2023-06-24T14:20:08;34.70;79.40
35682;DHT22;21805;51.022;4.782;2023-06-24T14:25:48;35.00;77.20
35682;DHT22;21805;51.022;4.782;2023-06-24T14:28:13;34.60;77.20
35682;DHT22;21805;51.022;4.782;2023-06-24T14:30:39;34.70;77.60
35682;DHT22;21805;51.022;4.782;2023-06-24T14:33:06;34.80;86.80
35682;DHT22;21805;51.022;4.782;2023-06-24T14:35:32;34.70;84.30
35682;DHT22;21805;51.022;4.782;2023-06-24T14:37:58;34.70;84.60
35682;DHT22;21805;51.022;4.782;2023-06-24T14:40:23;34.60;78.60
35682;DHT22;21805;51.022;4.782;2023-06-24T14:42:49;34.60;77.50
35682;DHT22;21805;51.022;4.782;2023-06-24T14:45:14;34.60;73.50
35682;DHT22;21805;51.022;4.782;2023-06-24T14:47:40;34.50;75.70
35682;DHT22;21805;51.022;4.782;2023-06-24T14:50:06;34.60;81.60
35682;DHT22;21805;51.022;4.782;2023-06-24T14:55:17;34.80;73.80
35682;DHT22;21805;51.022;4.782;2023-06-24T14:57:43;34.80;74.80
35682;DHT22;21805;51.022;4.782;2023-06-24T15:00:09;34.90;84.50
35682;DHT22;21805;51.022;4.782;2023-06-24T15:02:34;34.80;76.70
35682;DHT22;21805;51.022;4.782;2023-06-24T15:05:03;34.70;76.50
35682;DHT22;21805;51.022;4.782;2023-06-24T15:07:29;34.80;82.40
35682;DHT22;21805;51.022;4.782;2023-06-24T15:09:57;35.00;78.30
35682;DHT22;21805;51.022;4.782;2023-06-24T15:12:23;34.80;78.10
35682;DHT22;21805;51.022;4.782;2023-06-24T15:14:48;34.60;78.90
35682;DHT22;21805;51.022;4.782;2023-06-24T15:17:14;34.50;84.00
35682;DHT22;21805;51.022;4.782;2023-06-24T15:19:40;34.50;86.50
35682;DHT22;21805;51.022;4.782;2023-06-24T15:50:50;33.70;84.10
